Time;durP1;ratioP1;P1;durP2;ratioP2;P2;SDS_P1;SDS_P2;PMS_P1;PMS_P2;Temp;Humidity;BMP_temperature;BMP_pressure;BME280_temperature;BME280_humidity;BME280_pressure;Samples;Min_cycle;Max_cycle;Signal;HPM_P1;HPM_P2
2023/06/09 00:02:22;;;;;;;2.50;2.40;;;23.70;76.20;;;;;;5075147;28;20460;-88
2023/06/09 00:04:48;;;;;;;3.00;2.80;;;23.60;76.00;;;;;;5075154;28;20966;-81
2023/06/09 00:07:16;;;;;;;3.40;3.20;;;23.70;76.10;;;;;;5074874;28;20479;-80
2023/06/09 00:09:43;;;;;;;3.10;2.90;;;23.60;75.90;;;;;;5075042;28;20440;-81
2023/06/09 00:12:12;;;;;;;2.83;2.63;;;23.60;75.90;;;;;;5074737;28;20844;-81
2023/06/09 00:14:41;;;;;;;3.20;3.00;;;23.70;76.30;;;;;;5074743;28;20437;-81
2023/06/09 00:17:08;;;;;;;2.43;2.33;;;23.60;76.00;;;;;;5074832;28;20928;-81
2023/06/09 00:19:35;;;;;;;2.90;2.70;;;23.60;76.00;;;;;;5074940;28;20498;-80
2023/06/09 00:22:02;;;;;;;3.23;3.03;;;23.60;76.20;;;;;;5074815;28;20446;-80
2023/06/09 00:24:29;;;;;;;3.40;3.10;;;23.60;76.00;;;;;;5074723;28;20445;-82
2023/06/09 00:26:56;;;;;;;3.10;2.90;;;23.60;76.00;;;;;;5074561;28;20448;-80
2023/06/09 00:29:23;;;;;;;3.03;2.83;;;23.60;76.00;;;;;;5073721;28;20447;-81
2023/06/09 00:31:51;;;;;;;2.83;2.63;;;23.60;76.00;;;;;;5074370;28;20521;-80
2023/06/09 00:34:18;;;;;;;2.30;2.20;;;23.60;76.10;;;;;;5074482;28;20523;-81
2023/06/09 00:36:45;;;;;;;2.70;2.50;;;23.60;76.10;;;;;;5074452;28;20932;-80
2023/06/09 00:39:11;;;;;;;3.07;2.87;;;23.60;76.00;;;;;;5074604;28;20801;-81
2023/06/09 00:41:39;;;;;;;2.90;2.70;;;23.60;76.10;;;;;;5074365;28;20440;-81
2023/06/09 00:44:07;;;;;;;2.67;2.47;;;23.70;76.10;;;;;;5074302;28;20505;-81
2023/06/09 00:46:34;;;;;;;3.07;2.77;;;23.60;76.00;;;;;;5074281;28;20435;-81
2023/06/09 00:49:05;;;;;;;3.30;3.10;;;23.60;75.90;;;;;;5074115;28;20447;-81
2023/06/09 00:51:34;;;;;;;3.37;3.07;;;23.60;76.20;;;;;;5074203;28;20838;-82
2023/06/09 00:54:01;;;;;;;3.87;2.90;;;23.70;76.20;;;;;;5074302;28;20551;-81
2023/06/09 00:56:29;;;;;;;2.70;2.50;;;23.60;76.00;;;;;;5074190;28;20445;-88
2023/06/09 00:58:56;;;;;;;3.20;3.00;;;23.60;76.10;;;;;;5074084;28;20452;-88
2023/06/09 01:01:23;;;;;;;2.70;2.50;;;23.60;76.40;;;;;;5074132;28;20437;-81
2023/06/09 01:03:50;;;;;;;2.77;2.57;;;23.60;76.20;;;;;;5073861;28;21003;-81
2023/06/09 01:06:30;;;;;;;2.80;2.60;;;23.60;76.20;;;;;;5073750;28;20473;-81
2023/06/09 01:09:00;;;;;;;2.77;2.57;;;23.60;76.10;;;;;;5073963;28;20512;-81
2023/06/09 01:11:31;;;;;;;2.93;2.73;;;23.60;76.20;;;;;;5073808;28;20483;-81
2023/06/09 01:14:06;;;;;;;3.10;2.90;;;23.60;76.20;;;;;;5073666;28;20461;-81
2023/06/09 01:16:42;;;;;;;2.47;2.33;;;23.60;76.20;;;;;;5073751;28;20523;-81
2023/06/09 01:19:15;;;;;;;2.77;2.57;;;23.60;76.20;;;;;;5073749;28;20442;-81
2023/06/09 01:21:44;;;;;;;2.50;2.40;;;23.60;76.10;;;;;;5073741;28;20865;-81
2023/06/09 01:24:20;;;;;;;2.97;2.77;;;23.60;76.20;;;;;;5073561;28;20539;-80
2023/06/09 01:26:50;;;;;;;2.60;2.40;;;23.60;76.30;;;;;;5073520;28;20442;-82
2023/06/09 01:29:19;;;;;;;3.53;2.77;;;23.60;76.30;;;;;;5073659;28;20502;-82
2023/06/09 01:31:47;;;;;;;3.03;2.83;;;23.60;76.20;;;;;;5072886;28;20496;-81
2023/06/09 01:34:14;;;;;;;3.13;2.93;;;23.60;76.30;;;;;;5073581;28;20531;-81
2023/06/09 01:36:42;;;;;;;3.00;2.80;;;23.60;76.40;;;;;;5073491;28;20440;-81
2023/06/09 01:39:09;;;;;;;2.63;2.43;;;23.60;76.30;;;;;;5073281;28;20939;-80
2023/06/09 01:41:37;;;;;;;3.20;2.87;;;23.60;76.20;;;;;;5073256;28;20503;-80
2023/06/09 01:44:05;;;;;;;2.63;2.50;;;23.60;76.20;;;;;;5073191;28;20449;-82
2023/06/09 01:46:32;;;;;;;3.10;2.90;;;23.60;76.20;;;;;;5073621;28;20436;-82
2023/06/09 01:49:07;;;;;;;2.60;2.40;;;23.60;76.20;;;;;;5073334;28;20437;-86
2023/06/09 01:51:42;;;;;;;3.10;2.90;;;23.60;76.30;;;;;;5072988;28;20527;-81
2023/06/09 01:54:13;;;;;;;2.80;2.57;;;23.60;76.20;;;;;;5073231;28;20447;-89
2023/06/09 01:56:45;;;;;;;2.80;2.43;;;23.60;76.30;;;;;;5073177;28;20445;-82
2023/06/09 01:59:18;;;;;;;3.00;2.80;;;23.60;76.30;;;;;;5073278;28;20440;-84
2023/06/09 02:01:47;;;;;;;2.77;2.57;;;23.60;76.30;;;;;;5073163;28;20438;-82
2023/06/09 02:04:16;;;;;;;3.20;3.00;;;23.60;76.30;;;;;;5072971;28;20444;-87
2023/06/09 02:06:43;;;;;;;2.80;2.60;;;23.60;76.20;;;;;;5073068;28;20480;-82
2023/06/09 02:09:11;;;;;;;2.93;2.73;;;23.60;76.30;;;;;;5072989;28;20442;-81
2023/06/09 02:11:38;;;;;;;2.40;2.30;;;23.60;76.30;;;;;;5072868;28;20484;-82
2023/06/09 02:14:04;;;;;;;2.63;2.43;;;23.60;76.40;;;;;;5072859;28;20466;-82
2023/06/09 02:16:32;;;;;;;2.40;2.30;;;23.60;76.30;;;;;;5072985;28;20444;-87
2023/06/09 02:19:00;;;;;;;3.13;2.93;;;23.60;76.20;;;;;;5072978;28;20438;-81
2023/06/09 02:21:27;;;;;;;2.73;2.53;;;23.60;76.30;;;;;;5072811;28;20446;-81
2023/06/09 02:23:53;;;;;;;2.67;2.47;;;23.60;76.10;;;;;;5073031;28;20437;-80
2023/06/09 02:26:20;;;;;;;2.83;2.63;;;23.60;76.20;;;;;;5072792;28;20444;-82
2023/06/09 02:28:48;;;;;;;2.97;2.77;;;23.60;76.20;;;;;;5072799;28;20436;-87
2023/06/09 02:31:15;;;;;;;3.17;2.97;;;23.60;76.30;;;;;;5072725;28;20990;-82
2023/06/09 02:33:43;;;;;;;2.83;2.63;;;23.60;76.20;;;;;;5072601;28;20473;-88
2023/06/09 02:36:12;;;;;;;2.57;2.37;;;23.60;76.40;;;;;;5072656;28;20553;-82
2023/06/09 02:38:39;;;;;;;3.20;2.93;;;23.60;76.50;;;;;;5072919;28;20467;-82
2023/06/09 02:41:06;;;;;;;3.00;2.80;;;23.60;76.40;;;;;;5072951;28;20445;-83
2023/06/09 02:43:33;;;;;;;2.50;2.40;;;23.60;76.40;;;;;;5072844;28;20829;-88
2023/06/09 02:46:00;;;;;;;2.40;2.20;;;23.60;76.50;;;;;;5072731;28;20438;-82
2023/06/09 02:48:26;;;;;;;3.07;2.77;;;23.60;76.40;;;;;;5072682;28;20923;-81
2023/06/09 02:50:54;;;;;;;2.90;2.70;;;23.60;76.60;;;;;;5072807;28;20786;-82
2023/06/09 02:53:21;;;;;;;2.43;2.30;;;23.60;76.70;;;;;;5076376;28;20447;-89
2023/06/09 02:55:48;;;;;;;2.50;2.30;;;23.60;76.50;;;;;;5076675;28;20441;-86
2023/06/09 02:58:15;;;;;;;2.47;2.30;;;23.60;76.60;;;;;;5076226;28;20942;-82
2023/06/09 03:00:44;;;;;;;2.83;2.63;;;23.70;76.60;;;;;;5076589;28;20770;-82
2023/06/09 03:03:11;;;;;;;2.87;2.67;;;23.60;76.40;;;;;;5076106;28;20510;-82
2023/06/09 03:05:40;;;;;;;3.03;2.83;;;23.60;76.40;;;;;;5075932;28;20480;-82
2023/06/09 03:08:09;;;;;;;2.97;2.77;;;23.60;76.40;;;;;;5076293;28;20942;-82
2023/06/09 03:10:36;;;;;;;2.43;2.33;;;23.60;76.50;;;;;;5076117;28;20490;-82
2023/06/09 03:13:03;;;;;;;2.70;2.60;;;23.60;76.60;;;;;;5075781;28;20489;-82
2023/06/09 03:15:30;;;;;;;2.73;2.53;;;23.60;76.60;;;;;;5076152;28;20438;-88
2023/06/09 03:17:57;;;;;;;2.60;2.40;;;23.60;76.60;;;;;;5076145;28;20436;-82
2023/06/09 03:20:25;;;;;;;2.60;2.40;;;23.60;76.50;;;;;;5075946;28;20469;-82
2023/06/09 03:22:53;;;;;;;2.40;2.30;;;23.60;76.60;;;;;;5075887;28;20924;-82
2023/06/09 03:25:22;;;;;;;2.77;2.57;;;23.60;76.60;;;;;;5076015;28;20870;-82
2023/06/09 03:27:48;;;;;;;2.97;2.77;;;23.60;76.60;;;;;;5075830;28;20432;-88
2023/06/09 03:30:15;;;;;;;2.67;2.47;;;23.60;76.60;;;;;;5075685;28;20446;-81
2023/06/09 03:32:42;;;;;;;2.37;2.27;;;23.60;76.60;;;;;;5075499;28;21117;-83
2023/06/09 03:35:09;;;;;;;3.07;2.87;;;23.60;76.70;;;;;;5075521;28;20448;-82
2023/06/09 03:37:36;;;;;;;2.70;2.50;;;23.70;76.70;;;;;;5075766;28;20494;-82
2023/06/09 03:40:04;;;;;;;3.10;2.60;;;23.50;76.40;;;;;;5075641;28;20445;-89
2023/06/09 03:42:32;;;;;;;2.43;2.23;;;23.60;76.60;;;;;;5075441;28;20465;-82
2023/06/09 03:44:59;;;;;;;2.60;2.40;;;23.60;76.70;;;;;;5075365;28;20453;-81
2023/06/09 03:47:26;;;;;;;2.37;2.27;;;23.50;76.60;;;;;;5075638;28;20844;-88
2023/06/09 03:49:53;;;;;;;2.50;2.30;;;23.60;76.70;;;;;;5075520;28;20444;-81
2023/06/09 03:52:21;;;;;;;2.70;2.50;;;23.50;76.70;;;;;;5057228;28;20986;-81
2023/06/09 03:54:48;;;;;;;2.50;2.30;;;23.60;76.70;;;;;;5075287;28;20476;-84
2023/06/09 03:57:15;;;;;;;2.47;2.27;;;23.50;76.50;;;;;;5075287;28;20441;-81
2023/06/09 03:59:43;;;;;;;2.53;2.33;;;23.60;76.60;;;;;;5075184;28;20468;-81
2023/06/09 04:02:10;;;;;;;2.00;1.90;;;23.50;76.90;;;;;;5075154;28;20451;-82
2023/06/09 04:04:37;;;;;;;2.90;2.70;;;23.50;76.50;;;;;;5075146;28;20961;-81
2023/06/09 04:07:04;;;;;;;2.57;2.37;;;23.50;76.70;;;;;;5074688;28;20984;-82
2023/06/09 04:09:32;;;;;;;2.43;2.23;;;23.50;76.50;;;;;;5075151;28;20443;-82
2023/06/09 04:11:59;;;;;;;2.20;2.10;;;23.50;76.50;;;;;;5074637;28;20489;-80
2023/06/09 04:14:26;;;;;;;2.23;2.03;;;23.50;76.50;;;;;;5074994;28;20547;-81
2023/06/09 04:16:54;;;;;;;2.77;2.47;;;23.50;76.60;;;;;;5074830;28;20458;-81
2023/06/09 04:19:21;;;;;;;2.50;2.30;;;23.50;76.60;;;;;;5074810;28;20446;-88
2023/06/09 04:21:49;;;;;;;2.80;2.60;;;23.50;76.70;;;;;;5074760;28;20442;-80
2023/06/09 04:24:16;;;;;;;2.73;2.53;;;23.50;76.70;;;;;;5074787;28;20931;-80
2023/06/09 04:26:44;;;;;;;2.40;2.30;;;23.50;76.60;;;;;;5074779;28;20800;-80
2023/06/09 04:29:12;;;;;;;2.37;2.27;;;23.50;76.90;;;;;;5074721;28;20462;-81
2023/06/09 04:31:42;;;;;;;2.67;2.47;;;23.50;76.80;;;;;;5074401;28;20481;-81
2023/06/09 04:34:12;;;;;;;2.70;2.50;;;23.50;76.70;;;;;;5074902;28;20531;-81
2023/06/09 04:36:40;;;;;;;2.67;2.47;;;23.50;76.80;;;;;;5074675;28;20988;-81
2023/06/09 04:39:08;;;;;;;2.70;2.53;;;23.50;76.90;;;;;;5074640;28;20445;-80
2023/06/09 04:41:35;;;;;;;2.40;2.20;;;23.50;76.70;;;;;;5074472;28;20503;-87
2023/06/09 04:44:05;;;;;;;2.60;2.40;;;23.50;76.50;;;;;;5074189;28;20494;-81
2023/06/09 04:46:37;;;;;;;2.60;2.40;;;23.50;76.60;;;;;;5074276;28;20797;-80
2023/06/09 04:49:08;;;;;;;3.03;2.83;;;23.50;76.50;;;;;;5074371;28;20447;-81
2023/06/09 04:51:48;;;;;;;2.70;2.50;;;23.50;76.40;;;;;;5074592;28;20481;-85
2023/06/09 04:54:15;;;;;;;2.80;2.60;;;23.50;76.60;;;;;;5074917;28;20817;-87
2023/06/09 04:56:44;;;;;;;2.10;2.00;;;23.50;76.60;;;;;;5074268;28;20444;-84
2023/06/09 04:59:11;;;;;;;2.80;2.37;;;23.50;76.50;;;;;;5074583;28;20451;-82
2023/06/09 05:01:40;;;;;;;2.80;2.57;;;23.50;76.60;;;;;;5073956;28;20449;-80
2023/06/09 05:04:07;;;;;;;2.97;2.77;;;23.50;76.50;;;;;;5074181;28;20449;-81
2023/06/09 05:06:36;;;;;;;2.43;2.27;;;23.50;76.80;;;;;;5073720;28;20478;-88
2023/06/09 05:09:07;;;;;;;2.63;2.53;;;23.50;76.50;;;;;;5073803;28;20446;-80
2023/06/09 05:11:34;;;;;;;3.00;2.80;;;23.50;76.60;;;;;;5073644;28;20445;-81
2023/06/09 05:14:01;;;;;;;2.47;2.27;;;23.50;76.50;;;;;;5072988;28;20459;-87
2023/06/09 05:16:28;;;;;;;2.70;2.50;;;23.50;76.50;;;;;;5073963;28;20444;-81
2023/06/09 05:18:56;;;;;;;2.50;2.40;;;23.50;76.70;;;;;;5073935;28;20797;-81
2023/06/09 05:21:23;;;;;;;3.70;3.40;;;23.50;76.60;;;;;;5073651;28;20528;-81
2023/06/09 05:23:50;;;;;;;2.90;2.70;;;23.50;76.60;;;;;;5073572;28;20444;-81
2023/06/09 05:26:18;;;;;;;2.50;2.40;;;23.50;76.80;;;;;;5073503;28;20801;-87
2023/06/09 05:28:45;;;;;;;2.80;2.60;;;23.50;76.90;;;;;;5073683;28;20465;-82
2023/06/09 05:31:12;;;;;;;2.27;2.10;;;23.50;76.90;;;;;;5073498;28;20438;-92
2023/06/09 05:33:49;;;;;;;3.03;2.83;;;23.50;76.70;;;;;;5073888;28;20502;-82
2023/06/09 05:36:16;;;;;;;3.47;3.20;;;23.50;77.10;;;;;;5072649;28;20444;-81
2023/06/09 05:38:43;;;;;;;3.03;2.53;;;23.50;77.40;;;;;;5071812;28;20466;-80
2023/06/09 05:41:14;;;;;;;6.00;5.50;;;23.50;77.20;;;;;;5071616;28;20865;-81
2023/06/09 05:43:42;;;;;;;3.90;3.60;;;23.50;79.90;;;;;;5069357;28;20461;-80
2023/06/09 05:46:10;;;;;;;6.30;4.30;;;23.50;78.10;;;;;;5071824;28;20438;-80
2023/06/09 05:48:36;;;;;;;9.50;5.70;;;23.40;78.50;;;;;;5071939;28;20452;-84
2023/06/09 05:51:03;;;;;;;7.33;6.60;;;23.50;78.90;;;;;;5071662;28;20450;-87
2023/06/09 05:53:32;;;;;;;8.20;7.27;;;23.50;80.10;;;;;;5071616;28;20493;-84
2023/06/09 05:55:59;;;;;;;11.90;8.27;;;23.50;80.60;;;;;;5072589;28;20476;-81
2023/06/09 05:58:27;;;;;;;9.17;8.37;;;23.40;81.00;;;;;;5072667;28;20452;-82
2023/06/09 06:00:57;;;;;;;8.60;7.90;;;23.40;81.20;;;;;;5075739;28;20447;-80
2023/06/09 06:03:24;;;;;;;10.33;9.23;;;23.40;81.50;;;;;;5071754;28;20445;-81
2023/06/09 06:05:51;;;;;;;11.40;8.43;;;23.40;81.70;;;;;;5071209;28;21237;-80
2023/06/09 06:08:18;;;;;;;16.43;10.77;;;23.40;81.70;;;;;;5071311;28;20443;-80
2023/06/09 06:10:45;;;;;;;15.17;9.00;;;23.40;82.00;;;;;;5071136;28;20463;-80
2023/06/09 06:13:13;;;;;;;10.90;9.90;;;23.30;82.00;;;;;;5070336;28;20504;-81
2023/06/09 06:15:40;;;;;;;13.13;8.60;;;23.30;82.10;;;;;;5071047;28;20835;-81
2023/06/09 06:18:08;;;;;;;10.63;9.43;;;23.30;82.10;;;;;;5071128;28;20445;-81
2023/06/09 06:20:35;;;;;;;10.17;9.17;;;23.40;82.40;;;;;;5071962;28;20452;-81
2023/06/09 06:23:02;;;;;;;10.77;8.73;;;23.30;82.50;;;;;;5073033;28;20444;-82
2023/06/09 06:25:29;;;;;;;8.50;7.77;;;23.30;82.70;;;;;;5074806;28;20446;-81
2023/06/09 06:27:56;;;;;;;9.80;8.33;;;23.30;82.70;;;;;;5077145;28;20445;-81
2023/06/09 06:30:23;;;;;;;8.70;7.90;;;23.30;82.60;;;;;;5077054;28;20444;-80
2023/06/09 06:32:51;;;;;;;9.37;8.40;;;23.30;82.60;;;;;;5076810;28;20488;-81
2023/06/09 06:35:29;;;;;;;9.27;8.37;;;23.40;82.60;;;;;;5077091;28;20473;-83
2023/06/09 06:37:56;;;;;;;9.73;8.27;;;23.40;83.00;;;;;;5077043;28;20429;-83
2023/06/09 06:40:23;;;;;;;9.60;8.70;;;23.40;82.20;;;;;;5076914;28;20447;-84
2023/06/09 06:42:51;;;;;;;7.10;6.40;;;23.40;82.30;;;;;;5076808;28;20461;-83
2023/06/09 06:45:18;;;;;;;9.73;7.10;;;23.40;81.90;;;;;;5076765;28;20441;-83
2023/06/09 06:47:45;;;;;;;7.23;6.63;;;23.40;81.70;;;;;;5076893;28;20441;-83
2023/06/09 06:50:12;;;;;;;6.60;6.00;;;23.40;81.50;;;;;;5076852;28;20440;-83
2023/06/09 06:52:41;;;;;;;6.63;6.03;;;23.40;81.40;;;;;;5076607;28;20835;-82
2023/06/09 06:55:09;;;;;;;8.33;6.00;;;23.40;81.00;;;;;;5076446;28;20435;-81
2023/06/09 06:57:36;;;;;;;6.13;5.63;;;23.40;80.40;;;;;;5076422;28;20441;-84
2023/06/09 07:00:09;;;;;;;6.40;5.80;;;23.40;80.10;;;;;;5076280;28;20770;-81
2023/06/09 07:02:36;;;;;;;6.87;5.50;;;23.50;79.80;;;;;;5076480;28;20441;-85
2023/06/09 07:05:03;;;;;;;6.23;5.73;;;23.40;79.20;;;;;;5076275;28;20447;-81
2023/06/09 07:07:30;;;;;;;6.87;6.27;;;23.40;79.10;;;;;;5076522;28;20474;-83
2023/06/09 07:09:58;;;;;;;6.33;5.77;;;23.50;79.00;;;;;;5076546;28;20443;-85
2023/06/09 07:12:27;;;;;;;6.73;6.20;;;23.40;78.70;;;;;;5075938;28;20502;-80
2023/06/09 07:14:55;;;;;;;6.20;5.53;;;23.40;78.50;;;;;;5076154;28;20493;-86
2023/06/09 07:17:22;;;;;;;6.30;5.70;;;23.50;78.60;;;;;;5076048;28;20885;-80
2023/06/09 07:19:49;;;;;;;6.43;5.83;;;23.40;78.50;;;;;;5076340;28;20441;-80
2023/06/09 07:22:16;;;;;;;7.07;6.27;;;23.50;78.60;;;;;;5076266;28;20460;-84
2023/06/09 07:24:43;;;;;;;7.10;6.40;;;23.50;78.50;;;;;;5076288;28;20433;-81
2023/06/09 07:27:11;;;;;;;6.83;6.23;;;23.50;78.50;;;;;;5076222;28;20532;-84
2023/06/09 07:29:38;;;;;;;8.10;6.60;;;23.50;78.50;;;;;;5075965;28;20433;-80
2023/06/09 07:32:06;;;;;;;6.43;5.70;;;23.50;78.80;;;;;;5075804;28;20477;-82
2023/06/09 07:34:33;;;;;;;9.63;6.57;;;23.50;78.70;;;;;;5076254;28;20441;-82
2023/06/09 07:37:03;;;;;;;6.63;5.90;;;23.50;78.90;;;;;;5073628;28;20446;-86
2023/06/09 07:39:30;;;;;;;6.87;5.90;;;23.50;78.90;;;;;;5076065;28;20541;-83
2023/06/09 07:41:57;;;;;;;6.50;5.90;;;23.50;79.00;;;;;;5075403;28;20453;-81
2023/06/09 07:44:27;;;;;;;5.83;5.33;;;23.50;79.80;;;;;;5075752;28;20445;-82
2023/06/09 07:46:53;;;;;;;6.43;5.83;;;23.50;79.90;;;;;;5075827;28;20483;-83
2023/06/09 07:49:20;;;;;;;7.97;5.63;;;23.50;80.00;;;;;;5075889;28;20531;-83
2023/06/09 07:51:49;;;;;;;5.60;5.10;;;23.40;79.90;;;;;;5075534;28;20447;-82
2023/06/09 07:54:16;;;;;;;5.97;5.47;;;23.50;79.90;;;;;;5075623;28;20487;-82
2023/06/09 07:56:48;;;;;;;9.23;5.77;;;23.40;80.30;;;;;;5074610;28;20466;-84
2023/06/09 07:59:15;;;;;;;8.67;5.50;;;23.40;80.40;;;;;;5072641;28;20801;-81
2023/06/09 08:01:44;;;;;;;8.93;5.10;;;23.50;80.40;;;;;;5076188;28;20448;-79
2023/06/09 08:04:11;;;;;;;5.60;5.07;;;23.50;79.90;;;;;;5076108;28;20479;-79
2023/06/09 08:06:38;;;;;;;5.87;5.17;;;23.50;79.50;;;;;;5075666;28;20473;-79
2023/06/09 08:09:06;;;;;;;7.07;5.10;;;23.50;79.30;;;;;;5073557;28;20436;-79
2023/06/09 08:11:33;;;;;;;6.17;5.50;;;23.50;79.10;;;;;;5074000;28;20433;-79
2023/06/09 08:14:00;;;;;;;6.80;4.87;;;23.50;78.90;;;;;;5074228;28;20489;-79
2023/06/09 08:16:27;;;;;;;5.40;4.90;;;23.60;79.00;;;;;;5074543;28;20453;-79
2023/06/09 08:18:56;;;;;;;6.53;6.03;;;23.60;78.90;;;;;;5074445;28;20805;-79
2023/06/09 08:21:23;;;;;;;6.77;5.60;;;23.60;79.00;;;;;;5073569;28;20448;-79
2023/06/09 08:23:51;;;;;;;6.50;4.67;;;23.60;79.20;;;;;;5076814;28;20444;-78
2023/06/09 08:26:19;;;;;;;6.57;5.97;;;23.60;79.20;;;;;;5080328;28;20440;-79
2023/06/09 08:28:46;;;;;;;6.03;5.40;;;23.60;79.20;;;;;;5079837;28;20631;-79
2023/06/09 08:31:13;;;;;;;5.23;4.83;;;23.60;79.00;;;;;;5076294;28;20946;-80
2023/06/09 08:33:41;;;;;;;5.47;4.83;;;23.60;78.90;;;;;;5076784;28;20476;-80
2023/06/09 08:36:09;;;;;;;5.73;5.23;;;23.60;78.90;;;;;;5077332;28;20452;-79
2023/06/09 08:38:37;;;;;;;6.87;6.00;;;23.60;78.80;;;;;;5078707;28;20503;-80
2023/06/09 08:41:08;;;;;;;5.30;4.90;;;23.60;78.90;;;;;;5077033;28;20452;-78
2023/06/09 08:43:35;;;;;;;5.87;5.20;;;23.60;79.00;;;;;;5078693;28;20552;-79
2023/06/09 08:46:06;;;;;;;6.50;5.83;;;23.60;78.80;;;;;;5077146;28;20448;-78
2023/06/09 08:48:36;;;;;;;5.53;5.07;;;23.60;79.00;;;;;;5080157;28;20533;-79
2023/06/09 08:51:03;;;;;;;5.37;4.97;;;23.60;79.10;;;;;;5077124;28;20454;-81
2023/06/09 08:53:32;;;;;;;5.53;4.50;;;23.60;79.10;;;;;;5076614;28;20528;-79
2023/06/09 08:56:01;;;;;;;4.70;4.30;;;23.60;79.10;;;;;;5076757;28;20451;-79
2023/06/09 08:58:28;;;;;;;5.83;5.33;;;23.60;79.00;;;;;;5076078;28;20463;-78
2023/06/09 09:00:56;;;;;;;7.67;5.50;;;23.60;79.10;;;;;;5076121;28;20801;-79
2023/06/09 09:03:23;;;;;;;5.70;5.07;;;23.60;79.20;;;;;;5075880;28;20507;-79
2023/06/09 09:05:50;;;;;;;5.63;5.13;;;23.60;79.10;;;;;;5075326;28;20465;-78
2023/06/09 09:08:17;;;;;;;6.50;5.43;;;23.70;79.10;;;;;;5075708;28;20468;-80
2023/06/09 09:10:46;;;;;;;5.00;4.60;;;23.60;79.00;;;;;;5075188;28;20529;-79
2023/06/09 09:13:14;;;;;;;5.50;5.00;;;23.60;78.90;;;;;;5073498;28;20485;-79
2023/06/09 09:15:48;;;;;;;5.47;4.97;;;23.60;79.00;;;;;;5076177;28;20455;-79
2023/06/09 09:18:16;;;;;;;6.00;5.40;;;23.50;79.40;;;;;;5073942;28;20448;-79
2023/06/09 09:20:43;;;;;;;5.80;5.20;;;23.70;80.20;;;;;;5072887;28;20438;-79
2023/06/09 09:23:10;;;;;;;6.10;5.60;;;23.70;80.10;;;;;;5073284;28;20476;-82
2023/06/09 09:25:37;;;;;;;5.60;5.13;;;23.70;80.10;;;;;;5072690;28;20447;-80
2023/06/09 09:28:07;;;;;;;6.70;5.07;;;23.70;80.00;;;;;;5071529;28;20445;-81
2023/06/09 09:30:51;;;;;;;7.13;5.20;;;23.70;79.80;;;;;;5070835;28;20436;-80
2023/06/09 09:33:20;;;;;;;6.10;5.00;;;23.70;80.00;;;;;;5070412;28;20508;-81
2023/06/09 09:35:49;;;;;;;5.73;4.80;;;23.70;80.00;;;;;;5071326;28;20469;-82
2023/06/09 09:38:19;;;;;;;4.43;4.10;;;23.70;79.90;;;;;;5071496;28;20978;-80
2023/06/09 09:40:47;;;;;;;5.40;4.90;;;23.70;79.80;;;;;;5071679;28;20543;-83
2023/06/09 09:43:16;;;;;;;5.37;4.80;;;23.70;79.70;;;;;;5072021;28;20469;-81
2023/06/09 09:45:44;;;;;;;5.23;4.37;;;23.70;79.70;;;;;;5072130;28;20465;-81
2023/06/09 09:48:13;;;;;;;4.30;4.00;;;23.70;79.80;;;;;;5071670;28;20445;-80
2023/06/09 09:50:41;;;;;;;6.40;4.30;;;23.70;79.70;;;;;;5072513;28;20433;-81
2023/06/09 09:53:08;;;;;;;4.40;3.93;;;23.70;79.70;;;;;;5073017;28;20440;-81
2023/06/09 09:55:37;;;;;;;4.90;4.50;;;23.70;79.70;;;;;;5073231;28;20948;-81
2023/06/09 09:58:06;;;;;;;4.83;4.10;;;23.70;79.70;;;;;;5073258;28;20450;-81
2023/06/09 10:00:36;;;;;;;4.90;4.40;;;23.70;79.80;;;;;;5073085;28;20942;-81
2023/06/09 10:03:08;;;;;;;8.33;4.50;;;23.70;79.80;;;;;;5073073;28;20443;-81
2023/06/09 10:05:38;;;;;;;4.70;4.37;;;23.70;79.80;;;;;;5072862;28;20589;-79
2023/06/09 10:08:06;;;;;;;5.00;4.60;;;23.70;80.60;;;;;;5073007;28;20474;-81
2023/06/09 10:10:34;;;;;;;4.30;4.00;;;23.70;79.60;;;;;;5073164;28;20461;-81
2023/06/09 10:13:03;;;;;;;4.40;4.00;;;23.70;79.60;;;;;;5072206;28;20465;-81
2023/06/09 10:15:31;;;;;;;7.23;4.17;;;23.70;79.80;;;;;;5070553;28;20433;-81
2023/06/09 10:18:00;;;;;;;4.70;4.30;;;23.70;80.00;;;;;;5070963;28;20440;-82
2023/06/09 10:20:27;;;;;;;4.10;3.80;;;23.70;80.00;;;;;;5070983;28;20441;-85
2023/06/09 10:22:55;;;;;;;5.20;4.70;;;23.70;79.80;;;;;;5070795;28;20447;-81
2023/06/09 10:25:26;;;;;;;4.80;4.47;;;23.70;79.80;;;;;;5070673;28;20510;-81
2023/06/09 10:27:53;;;;;;;4.10;3.80;;;23.70;80.00;;;;;;5071221;28;20437;-81
2023/06/09 10:30:21;;;;;;;4.10;3.80;;;23.80;80.10;;;;;;5070897;28;20441;-81
2023/06/09 10:32:52;;;;;;;6.57;4.70;;;23.70;80.00;;;;;;5071033;28;20760;-80
2023/06/09 10:35:27;;;;;;;4.33;4.03;;;23.80;80.10;;;;;;5073165;28;20484;-80
2023/06/09 10:37:56;;;;;;;5.80;4.87;;;23.80;80.00;;;;;;5072282;28;20952;-81
2023/06/09 10:40:30;;;;;;;5.03;4.63;;;23.80;79.80;;;;;;5072650;28;20447;-81
2023/06/09 10:43:12;;;;;;;4.67;4.30;;;23.80;80.50;;;;;;5072770;28;20465;-81
2023/06/09 10:45:51;;;;;;;4.20;3.87;;;23.80;80.40;;;;;;5072875;28;20940;-81
2023/06/09 10:48:45;;;;;;;6.03;4.70;;;23.80;80.40;;;;;;5072708;28;20493;-81
2023/06/09 10:51:43;;;;;;;5.80;4.50;;;23.80;80.30;;;;;;5072667;28;20506;-80
2023/06/09 10:54:23;;;;;;;5.77;4.13;;;23.80;80.30;;;;;;5071746;28;20491;-80
2023/06/09 10:56:53;;;;;;;4.30;3.93;;;23.80;80.10;;;;;;5070380;28;21119;-84
2023/06/09 10:59:56;;;;;;;5.47;4.53;;;23.70;79.90;;;;;;5070620;28;20845;-85
2023/06/09 11:02:23;;;;;;;6.70;4.47;;;23.70;79.90;;;;;;5070520;28;20448;-83
2023/06/09 11:04:52;;;;;;;4.70;4.30;;;23.70;80.00;;;;;;5070476;28;20441;-84
2023/06/09 11:07:22;;;;;;;4.43;3.80;;;23.70;80.00;;;;;;5070338;28;20817;-83
2023/06/09 11:10:34;;;;;;;4.00;3.70;;;23.70;79.90;;;;;;5071407;28;20774;-87
2023/06/09 11:13:03;;;;;;;4.77;4.20;;;23.80;80.10;;;;;;5073929;28;20457;-81
2023/06/09 11:15:57;;;;;;;3.93;3.57;;;23.70;80.10;;;;;;5076214;28;20492;-81
2023/06/09 11:18:24;;;;;;;8.70;4.53;;;23.80;80.40;;;;;;5077193;28;20451;-85
2023/06/09 11:21:16;;;;;;;5.13;3.90;;;23.80;80.30;;;;;;5077362;28;20445;-84
2023/06/09 11:24:02;;;;;;;4.57;4.17;;;23.80;80.30;;;;;;5077621;28;20493;-81
2023/06/09 11:26:31;;;;;;;6.10;4.17;;;23.80;80.10;;;;;;5076488;28;20486;-81
2023/06/09 11:28:59;;;;;;;5.00;3.60;;;23.80;80.20;;;;;;5075119;28;20449;-82
2023/06/09 11:31:27;;;;;;;4.03;3.73;;;23.80;80.20;;;;;;5075347;28;20442;-82
2023/06/09 11:33:55;;;;;;;4.03;3.70;;;23.80;80.20;;;;;;5075637;28;20493;-84
2023/06/09 11:36:27;;;;;;;4.53;4.23;;;23.80;80.20;;;;;;5075156;28;20448;-81
2023/06/09 11:39:06;;;;;;;4.33;3.93;;;23.80;80.10;;;;;;5075134;28;20534;-82
2023/06/09 11:41:33;;;;;;;4.20;3.90;;;23.80;80.00;;;;;;5075241;28;20465;-80
2023/06/09 11:44:00;;;;;;;4.90;4.00;;;23.80;80.00;;;;;;5077378;28;20804;-82
2023/06/09 11:46:27;;;;;;;4.40;4.10;;;23.80;79.90;;;;;;5076837;28;20992;-82
2023/06/09 11:49:13;;;;;;;4.33;4.03;;;23.80;79.80;;;;;;5076889;28;20772;-83
2023/06/09 11:51:56;;;;;;;6.20;4.37;;;23.90;80.70;;;;;;5077828;28;20442;-82
2023/06/09 11:54:45;;;;;;;5.83;4.00;;;23.80;79.80;;;;;;5077632;28;20489;-83
2023/06/09 11:57:14;;;;;;;4.80;4.10;;;23.80;79.80;;;;;;5077077;28;20485;-81
2023/06/09 11:59:41;;;;;;;3.97;3.70;;;23.80;80.00;;;;;;5076828;28;20454;-82
2023/06/09 12:02:08;;;;;;;4.00;3.70;;;23.80;79.90;;;;;;5076675;28;20439;-81
2023/06/09 12:04:39;;;;;;;4.37;4.07;;;23.80;79.90;;;;;;5077170;28;20753;-84
2023/06/09 12:07:07;;;;;;;7.10;4.73;;;23.90;79.90;;;;;;5076271;28;20488;-81
2023/06/09 12:09:35;;;;;;;4.87;4.47;;;23.90;80.00;;;;;;5076300;28;20797;-84
2023/06/09 12:12:02;;;;;;;4.50;3.73;;;23.90;79.90;;;;;;5076525;28;20547;-84
2023/06/09 12:14:29;;;;;;;4.20;3.80;;;23.90;79.90;;;;;;5076320;28;20918;-81
2023/06/09 12:16:55;;;;;;;4.57;4.20;;;23.90;80.00;;;;;;5076744;28;20443;-81
2023/06/09 12:19:22;;;;;;;4.30;3.50;;;23.90;80.10;;;;;;5075659;28;20440;-81
2023/06/09 12:21:49;;;;;;;4.10;3.80;;;23.90;80.00;;;;;;5074982;28;20445;-83
2023/06/09 12:24:16;;;;;;;4.60;4.20;;;23.90;80.10;;;;;;5074624;28;20451;-83
2023/06/09 12:26:47;;;;;;;6.33;4.63;;;23.90;80.00;;;;;;5074843;28;20480;-86
2023/06/09 12:29:14;;;;;;;4.90;3.50;;;23.90;80.00;;;;;;5074881;28;20452;-83
2023/06/09 12:31:49;;;;;;;5.30;4.10;;;23.90;80.00;;;;;;5074578;28;20447;-83
2023/06/09 12:34:24;;;;;;;4.27;3.60;;;23.90;79.80;;;;;;5074605;28;20475;-84
2023/06/09 12:36:51;;;;;;;4.43;4.13;;;23.90;79.80;;;;;;5074622;28;20943;-83
2023/06/09 12:39:18;;;;;;;4.50;4.10;;;23.90;79.90;;;;;;5074537;28;20445;-83
2023/06/09 12:41:46;;;;;;;3.93;3.63;;;23.90;80.00;;;;;;5074682;28;20535;-86
2023/06/09 12:44:20;;;;;;;3.53;3.23;;;23.90;79.80;;;;;;5074491;28;20450;-86
2023/06/09 12:46:54;;;;;;;3.47;3.27;;;24.00;79.60;;;;;;5074316;28;21006;-86
2023/06/09 12:49:27;;;;;;;3.90;3.70;;;23.90;79.40;;;;;;5074497;28;20470;-83
2023/06/09 12:51:54;;;;;;;4.13;3.60;;;23.90;80.20;;;;;;5074175;28;20443;-84
2023/06/09 12:54:21;;;;;;;6.70;4.07;;;23.90;79.60;;;;;;5074420;28;20474;-89
2023/06/09 12:56:49;;;;;;;3.50;3.20;;;23.90;80.10;;;;;;5074200;28;20442;-84